Time;durP1;ratioP1;P1;durP2;ratioP2;P2;SDS_P1;SDS_P2;PMS_P1;PMS_P2;Temp;Humidity;BMP_temperature;BMP_pressure;BME280_temperature;BME280_humidity;BME280_pressure;Samples;Min_cycle;Max_cycle;Signal;HPM_P1;HPM_P2
2023/04/25 00:00:40;;;;;;;8.05;2.25;;;;;;;9.21;100.00;99353.78;4892478;29;20232;-77
2023/04/25 00:03:08;;;;;;;9.25;2.60;;;;;;;9.22;100.00;99339.72;4895017;29;20318;-77
2023/04/25 00:05:36;;;;;;;7.35;2.08;;;;;;;9.20;100.00;99333.56;4897654;29;20610;-77
2023/04/25 00:08:05;;;;;;;8.70;2.40;;;8.30;99.90;;;9.11;100.00;99334.47;4895459;29;20350;-77
2023/04/25 00:10:32;;;;;;;11.13;2.90;;;;;;;9.08;100.00;99342.34;4897677;29;20817;-77
2023/04/25 00:13:02;;;;;;;11.70;2.83;;;;;;;9.07;100.00;99348.50;4894859;29;20331;-77
2023/04/25 00:15:32;;;;;;;9.73;2.45;;;;;;;9.06;100.00;99352.03;4897615;29;20232;-77
2023/04/25 00:17:59;;;;;;;13.15;3.42;;;;;;;9.03;100.00;99359.06;4890261;29;20240;-77
2023/04/25 00:20:27;;;;;;;10.13;2.60;;;;;;;8.97;100.00;99355.56;4894067;29;20780;-77
2023/04/25 00:22:54;;;;;;;8.63;2.17;;;;;;;9.03;100.00;99352.03;4894999;29;20275;-76
2023/04/25 00:25:22;;;;;;;10.48;2.58;;;;;;;9.08;100.00;99347.63;4892914;29;20648;-77
2023/04/25 00:27:49;;;;;;;12.23;3.10;;;;;;;9.07;100.00;99340.59;4895991;29;20243;-76
2023/04/25 00:30:17;;;;;;;9.25;2.38;;;;;;;9.10;100.00;99335.34;4896785;29;20314;-77
2023/04/25 00:32:44;;;;;;;10.57;2.60;;;;;;;9.09;100.00;99314.22;4889732;29;20322;-77
2023/04/25 00:35:12;;;;;;;13.95;3.40;;;;;;;9.13;100.00;99308.97;4895920;29;20243;-77
2023/04/25 00:37:39;;;;;;;12.23;3.10;;;;;;;9.13;100.00;99305.47;4895126;29;20322;-77
2023/04/25 00:40:07;;;;;;;10.70;2.65;;;9.10;99.90;;;9.14;100.00;99304.56;4892508;29;20315;-77
2023/04/25 00:42:36;;;;;;;10.23;2.55;;;9.00;99.90;;;9.12;100.00;99299.31;4896518;29;20243;-77
2023/04/25 00:45:07;;;;;;;11.63;2.88;;;9.00;99.90;;;9.02;100.00;99309.84;4893266;29;20235;-76
2023/04/25 00:47:36;;;;;;;9.55;2.40;;;8.90;99.90;;;8.97;100.00;99321.28;4893214;29;20236;-77
2023/04/25 00:50:03;;;;;;;11.52;2.80;;;;;;;8.97;100.00;99336.22;4895351;29;20235;-76
2023/04/25 00:52:31;;;;;;;8.10;2.13;;;;;;;8.94;100.00;99339.75;4889041;29;20236;-77
2023/04/25 00:54:58;;;;;;;10.48;2.58;;;;;;;8.93;100.00;99342.41;4887292;29;20232;-76
2023/04/25 00:57:26;;;;;;;8.27;2.10;;;;;;;8.89;100.00;99338.88;4895290;29;20239;-76
2023/04/25 00:59:53;;;;;;;11.50;2.80;;;;;;;8.96;100.00;99353.81;4910542;29;20331;-77
2023/04/25 01:02:21;;;;;;;11.43;2.88;;;;;;;8.90;100.00;99359.09;4895090;29;20244;-77
2023/04/25 01:04:49;;;;;;;16.30;3.97;;;;;;;8.86;100.00;99369.66;4895187;29;20609;-77
2023/04/25 01:07:16;;;;;;;9.93;2.47;;;;;;;8.85;100.00;99370.53;4895471;29;20267;-78
2023/04/25 01:09:44;;;;;;;45.55;10.88;;;;;;;8.75;100.00;99376.69;4887798;29;20347;-78
2023/04/25 01:12:11;;;;;;;16.42;3.97;;;;;;;8.72;100.00;99396.00;4886398;29;20335;-78
2023/04/25 01:14:39;;;;;;;14.52;3.75;;;;;;;8.72;100.00;99400.41;4894178;29;20338;-78
2023/04/25 01:17:07;;;;;;;11.27;2.90;;;;;;;8.75;100.00;99416.22;4896449;29;20335;-77
2023/04/25 01:19:35;;;;;;;9.07;2.30;;;;;;;8.73;100.00;99418.84;4896386;29;20243;-78
2023/04/25 01:22:03;;;;;;;17.90;4.25;;;;;;;8.75;100.00;99424.13;4892885;29;20240;-78
2023/04/25 01:24:33;;;;;;;12.75;3.17;;;8.60;99.90;;;8.70;100.00;99425.88;4893258;29;20263;-78
2023/04/25 01:27:01;;;;;;;11.60;2.85;;;;;;;8.70;100.00;99432.03;4893617;29;20343;-78
2023/04/25 01:29:30;;;;;;;9.88;2.53;;;;;;;8.74;100.00;99441.69;4889140;29;20236;-78
2023/04/25 01:31:58;;;;;;;14.40;3.53;;;8.60;99.90;;;8.69;100.00;99450.47;4894091;29;20721;-78
2023/04/25 01:34:26;;;;;;;10.60;2.65;;;;;;;8.66;100.00;99464.53;4894565;29;20240;-77
2023/04/25 01:36:54;;;;;;;9.50;2.40;;;;;;;8.63;100.00;99477.72;4897469;29;20295;-77
2023/04/25 01:39:21;;;;;;;15.07;3.90;;;;;;;8.60;100.00;99496.16;4892106;29;20248;-77
2023/04/25 01:41:49;;;;;;;16.77;4.03;;;;;;;8.62;100.00;99510.22;4890808;29;20263;-78
2023/04/25 01:44:16;;;;;;;8.38;2.08;;;;;;;8.65;100.00;99531.31;4895215;29;20236;-77
2023/04/25 01:46:44;;;;;;;9.75;2.42;;;;;;;8.65;100.00;99532.19;4896939;29;20240;-77
2023/04/25 01:49:12;;;;;;;15.27;3.55;;;;;;;8.61;100.00;99538.31;4891166;29;20318;-78
2023/04/25 01:51:39;;;;;;;10.35;2.47;;;;;;;8.62;100.00;99552.38;4898551;29;20236;-78
2023/04/25 01:54:07;;;;;;;11.18;2.70;;;;;;;8.60;100.00;99559.41;4894399;29;20244;-77
2023/04/25 01:56:38;;;;;;;14.32;3.25;;;8.50;99.90;;;8.57;100.00;99567.31;4889111;29;20274;-78
2023/04/25 01:59:06;;;;;;;19.15;4.30;;;;;;;8.53;100.00;99581.34;4895855;29;20243;-77
2023/04/25 02:01:33;;;;;;;10.32;2.42;;;;;;;8.49;100.00;99598.00;4896863;29;20319;-78
2023/04/25 02:04:00;;;;;;;12.90;3.05;;;;;;;8.45;100.00;99614.69;4893921;29;20235;-77
2023/04/25 02:06:28;;;;;;;12.90;3.05;;;;;;;8.44;100.00;99631.38;4892623;29;20338;-77
2023/04/25 02:08:56;;;;;;;10.27;2.42;;;;;;;8.44;100.00;99650.69;4894397;29;20236;-77
2023/04/25 02:11:23;;;;;;;10.52;2.47;;;;;;;8.37;100.00;99659.44;4885549;29;20271;-77
2023/04/25 02:13:50;;;;;;;11.88;2.78;;;;;;;8.36;100.00;99677.88;4882617;29;20251;-77
2023/04/25 02:16:18;;;;;;;12.40;2.80;;;;;;;8.36;100.00;99693.66;4894924;29;20238;-77
2023/04/25 02:18:46;;;;;;;11.52;2.70;;;;;;;8.30;100.00;99713.81;4893595;29;20251;-77
2023/04/25 02:21:15;;;;;;;15.15;3.55;;;;;;;8.39;100.00;99726.19;4891292;29;20303;-77
2023/04/25 02:23:42;;;;;;;11.73;2.80;;;;;;;8.31;100.00;99734.00;4889282;29;20303;-77
2023/04/25 02:26:11;;;;;;;12.25;3.00;;;;;;;8.32;100.00;99746.31;4892690;29;20255;-77
2023/04/25 02:28:38;;;;;;;10.98;2.60;;;;;;;8.30;100.00;99755.06;4891236;29;20328;-77
2023/04/25 02:31:05;;;;;;;12.27;2.85;;;8.10;99.90;;;8.32;100.00;99767.38;4891974;29;20316;-78
2023/04/25 02:33:33;;;;;;;12.68;2.97;;;;;;;8.32;100.00;99767.38;4892143;29;20228;-77
2023/04/25 02:36:00;;;;;;;14.25;3.35;;;;;;;8.33;100.00;99789.38;4892137;29;20235;-77
2023/04/25 02:38:28;;;;;;;14.77;3.38;;;;;;;8.30;100.00;99798.09;4891035;29;20240;-77
2023/04/25 02:40:55;;;;;;;12.50;2.85;;;;;;;8.31;100.00;99809.53;4891811;29;20331;-78
2023/04/25 02:43:22;;;;;;;15.70;3.55;;;;;;;8.23;100.00;99803.31;4894141;29;20248;-77
2023/04/25 02:45:50;;;;;;;15.60;3.50;;;;;;;8.24;100.00;99824.38;4893960;29;20245;-77
2023/04/25 02:48:17;;;;;;;10.25;2.40;;;;;;;8.20;100.00;99829.63;4894519;29;20243;-77
2023/04/25 02:50:45;;;;;;;9.10;2.08;;;;;;;8.17;100.00;99830.47;4894234;29;20266;-78
2023/04/25 02:53:12;;;;;;;16.08;3.58;;;;;;;8.23;100.00;99845.44;4890094;29;20259;-78
2023/04/25 02:55:40;;;;;;;11.52;2.63;;;;;;;8.19;100.00;99860.34;4894063;29;20322;-77
2023/04/25 02:58:07;;;;;;;14.57;3.38;;;;;;;8.18;100.00;99863.84;4891275;29;20232;-77
2023/04/25 03:00:35;;;;;;;29.55;6.22;;;;;;;8.16;100.00;99878.75;4889736;29;20241;-76
2023/04/25 03:03:02;;;;;;;27.63;5.97;;;;;;;8.21;100.00;99884.06;4877146;29;20246;-76
2023/04/25 03:05:30;;;;;;;18.20;4.03;;;;;;;8.19;100.00;99888.44;4879522;29;20250;-76
2023/04/25 03:07:57;;;;;;;13.63;2.97;;;;;;;8.18;100.00;99898.09;4884520;29;20239;-77
2023/04/25 03:10:25;;;;;;;20.50;4.40;;;;;;;8.16;100.00;99894.56;4884649;29;20429;-76
2023/04/25 03:12:52;;;;;;;22.08;4.72;;;;;;;8.18;100.00;99898.09;4877948;29;20243;-77
2023/04/25 03:15:19;;;;;;;10.65;2.42;;;;;;;8.28;100.00;99899.94;4888983;29;20267;-76
2023/04/25 03:17:47;;;;;;;9.13;2.20;;;;;;;8.28;100.00;99912.22;4890002;29;20318;-76
2023/04/25 03:20:14;;;;;;;18.92;4.18;;;;;;;8.31;100.00;99921.03;4891954;29;20228;-77
2023/04/25 03:22:42;;;;;;;18.38;4.00;;;;;;;8.39;100.00;99925.53;4893000;29;20310;-77
2023/04/25 03:25:09;;;;;;;19.38;4.15;;;;;;;8.26;100.00;99921.88;4892427;29;20254;-77
2023/04/25 03:27:36;;;;;;;18.85;3.97;;;;;;;8.21;100.00;99908.66;4895742;29;20259;-77
2023/04/25 03:30:04;;;;;;;17.83;3.90;;;;;;;8.18;100.00;99913.88;4886538;29;20259;-77
2023/04/25 03:32:32;;;;;;;11.20;2.53;;;;;;;8.12;100.00;99920.84;4892875;29;20227;-77
2023/04/25 03:34:59;;;;;;;14.45;3.10;;;;;;;8.08;100.00;99934.84;4888774;29;20231;-77
2023/04/25 03:37:27;;;;;;;12.73;2.72;;;;;;;8.07;100.00;99951.50;4893318;29;20251;-77
2023/04/25 03:39:54;;;;;;;17.25;3.65;;;;;;;7.98;100.00;99960.19;4892821;29;20290;-77
2023/04/25 03:42:22;;;;;;;15.80;3.42;;;;;;;7.99;100.00;99978.63;4903060;29;20244;-77
2023/04/25 03:44:51;;;;;;;12.18;2.65;;;;;;;7.97;100.00;99990.91;4890439;29;20323;-77
2023/04/25 03:47:18;;;;;;;14.38;3.47;;;;;;;7.93;100.00;100012.78;4892148;29;20260;-77
2023/04/25 03:49:45;;;;;;;10.13;2.53;;;;;;;7.95;100.00;100021.59;4896555;29;20326;-77
2023/04/25 03:52:13;;;;;;;19.10;4.47;;;;;;;7.95;100.00;100028.59;4893817;29;20678;-77
2023/04/25 03:54:40;;;;;;;8.55;2.38;;;;;;;7.95;100.00;100039.13;4888583;29;20243;-77
2023/04/25 03:57:08;;;;;;;18.75;4.13;;;;;;;7.97;100.00;100056.72;4885352;29;20266;-78
2023/04/25 03:59:35;;;;;;;13.80;3.05;;;;;;;7.92;100.00;100050.50;4891369;29;20240;-77
2023/04/25 04:02:03;;;;;;;17.30;3.83;;;;;;;7.91;100.00;100059.28;4888763;29;20672;-77
2023/04/25 04:04:30;;;;;;;9.40;2.47;;;;;;;7.94;100.00;100066.34;4892136;29;20240;-79
2023/04/25 04:06:58;;;;;;;11.38;2.90;;;;;;;7.94;100.00;100063.69;4896847;29;20231;-78
2023/04/25 04:09:25;;;;;;;17.88;3.97;;;7.90;99.90;;;7.99;100.00;100065.53;4891914;29;20331;-77
2023/04/25 04:11:53;;;;;;;13.65;3.05;;;;;;;8.01;100.00;100065.56;4909847;29;20271;-77
2023/04/25 04:14:20;;;;;;;10.88;2.65;;;;;;;8.02;100.00;100064.69;4891200;29;20673;-77
2023/04/25 04:16:48;;;;;;;17.95;4.00;;;;;;;7.96;100.00;100068.13;4887612;29;20236;-77
2023/04/25 04:19:15;;;;;;;11.40;2.80;;;;;;;7.96;100.00;100072.50;4891981;29;20330;-77
2023/04/25 04:21:42;;;;;;;14.80;3.22;;;;;;;7.98;100.00;100074.28;4889646;29;20251;-77
2023/04/25 04:24:10;;;;;;;12.68;2.85;;;;;;;8.01;100.00;100063.81;4889240;29;20240;-77
2023/04/25 04:26:38;;;;;;;11.38;2.58;;;;;;;7.97;100.00;100059.34;4894357;29;20335;-77
2023/04/25 04:29:06;;;;;;;9.00;2.15;;;;;;;7.95;100.00;100055.81;4892965;29;20244;-77
2023/04/25 04:31:34;;;;;;;8.85;2.10;;;;;;;8.02;100.00;100056.78;4892417;29;20248;-77
2023/04/25 04:34:01;;;;;;;20.23;4.47;;;;;;;8.05;100.00;100048.03;4890759;29;20245;-77
2023/04/25 04:36:29;;;;;;;14.02;3.17;;;;;;;8.05;100.00;100037.50;4888945;29;20250;-77
2023/04/25 04:38:56;;;;;;;9.63;2.20;;;;;;;8.00;100.00;100054.13;4894495;29;20247;-78
2023/04/25 04:41:24;;;;;;;15.82;3.47;;;;;;;8.00;100.00;100056.75;4888932;29;20247;-77
2023/04/25 04:43:53;;;;;;;18.90;4.13;;;;;;;7.96;100.00;100073.38;4893445;29;20285;-78
2023/04/25 04:46:20;;;;;;;19.25;4.28;;;;;;;8.02;100.00;100083.13;4892236;29;20476;-79
2023/04/25 04:48:47;;;;;;;10.93;2.92;;;;;;;8.00;100.00;100083.09;4893066;29;20241;-78
2023/04/25 04:51:15;;;;;;;7.75;2.13;;;;;;;8.03;100.00;100091.03;4893066;29;20256;-79
2023/04/25 04:53:42;;;;;;;13.20;3.45;;;;;;;8.04;100.00;100086.66;4894853;29;20236;-78
2023/04/25 04:56:10;;;;;;;11.48;3.15;;;;;;;8.20;100.00;100087.75;4896436;29;20236;-79
2023/04/25 04:58:37;;;;;;;15.70;3.38;;;;;;;8.25;100.00;100089.56;4894590;29;20254;-79
2023/04/25 05:01:05;;;;;;;10.65;3.03;;;;;;;8.23;100.00;100074.63;4892845;29;20318;-80
2023/04/25 05:03:33;;;;;;;13.90;3.65;;;;;;;8.26;100.00;100056.22;4893386;29;20240;-79
2023/04/25 05:06:01;;;;;;;10.18;2.25;;;;;;;8.30;100.00;100045.72;4894601;29;20236;-80
2023/04/25 05:08:28;;;;;;;10.52;2.35;;;;;;;8.39;100.00;100033.56;4902185;29;20698;-80
2023/04/25 05:10:56;;;;;;;10.57;2.63;;;;;;;8.45;100.00;100031.88;4896731;29;20319;-80
2023/04/25 05:13:23;;;;;;;11.13;2.53;;;;;;;8.56;100.00;100032.00;4897560;29;20240;-80
2023/04/25 05:15:50;;;;;;;8.32;2.10;;;;;;;8.59;100.00;100035.53;4896965;29;20322;-80
2023/04/25 05:18:18;;;;;;;9.93;2.47;;;;;;;8.59;100.00;100037.28;4897547;29;20270;-80
2023/04/25 05:20:47;;;;;;;11.77;2.83;;;8.40;99.90;;;8.64;100.00;100048.78;4896904;29;20239;-80
2023/04/25 05:23:15;;;;;;;10.02;2.67;;;;;;;8.70;100.00;100064.66;4897159;29;20231;-80
2023/04/25 05:25:42;;;;;;;10.65;2.40;;;;;;;8.65;100.00;100079.53;4896415;29;20666;-81
2023/04/25 05:28:10;;;;;;;9.73;2.22;;;;;;;8.73;100.00;100096.31;4895156;29;20319;-81
2023/04/25 05:30:38;;;;;;;13.40;3.03;;;;;;;8.62;100.00;100085.66;4897683;29;20244;-80
2023/04/25 05:33:05;;;;;;;11.15;2.58;;;;;;;8.71;100.00;100084.00;4896475;29;20239;-80
2023/04/25 05:35:33;;;;;;;11.27;2.50;;;;;;;8.69;100.00;100083.97;4896792;29;20239;-79
2023/04/25 05:38:00;;;;;;;12.35;2.78;;;;;;;8.72;100.00;100069.94;4896819;29;20254;-79
2023/04/25 05:40:28;;;;;;;11.07;2.55;;;;;;;8.60;100.00;100055.75;4896468;29;20245;-78
2023/04/25 05:42:55;;;;;;;9.63;2.15;;;;;;;8.68;100.00;100060.22;4894674;29;20334;-78
2023/04/25 05:45:22;;;;;;;12.38;2.75;;;;;;;8.57;100.00;100058.38;4895740;29;20334;-78
2023/04/25 05:47:50;;;;;;;10.98;2.47;;;;;;;8.70;100.00;100059.38;4896086;29;20240;-79
2023/04/25 05:50:18;;;;;;;13.93;2.97;;;;;;;8.75;100.00;100054.16;4890297;29;20705;-78
2023/04/25 05:52:45;;;;;;;10.98;2.47;;;;;;;8.77;100.00;100052.41;4894762;29;20240;-79
2023/04/25 05:55:13;;;;;;;12.00;2.72;;;;;;;8.77;100.00;100055.06;4893887;29;20247;-78
2023/04/25 05:57:42;;;;;;;15.90;3.42;;;;;;;8.76;100.00;100051.53;4890345;29;20334;-78
2023/04/25 06:00:10;;;;;;;13.23;3.00;;;8.60;99.90;;;8.78;100.00;100051.56;4896465;29;20235;-80
2023/04/25 06:02:38;;;;;;;13.43;3.03;;;;;;;8.86;100.00;100061.31;4896124;29;20250;-80
2023/04/25 06:05:05;;;;;;;10.63;2.40;;;8.80;99.90;;;8.77;100.00;100053.31;4892620;29;20311;-79
2023/04/25 06:07:33;;;;;;;13.77;3.00;;;;;;;8.88;100.00;100062.19;4900793;29;20242;-79
2023/04/25 06:10:01;;;;;;;9.48;2.10;;;;;;;8.82;100.00;100064.78;4897493;29;20236;-79
2023/04/25 06:12:28;;;;;;;7.30;2.20;;;;;;;8.89;100.00;100071.88;4896018;29;20244;-79
2023/04/25 06:14:56;;;;;;;10.88;3.20;;;;;;;8.86;100.00;100071.84;4897082;29;20255;-80
2023/04/25 06:17:23;;;;;;;7.22;2.08;;;;;;;8.86;100.00;100071.84;4898057;29;20238;-79
2023/04/25 06:19:50;;;;;;;7.10;2.10;;;;;;;8.95;100.00;100076.34;4897710;29;20247;-79
2023/04/25 06:22:18;;;;;;;11.95;3.47;;;;;;;8.99;100.00;100083.41;4895939;29;20621;-78
2023/04/25 06:24:46;;;;;;;7.07;2.30;;;;;;;8.98;100.00;100084.28;4896010;29;20299;-79
2023/04/25 06:27:13;;;;;;;7.22;2.20;;;;;;;8.85;100.00;100072.72;4897112;29;20255;-79
2023/04/25 06:29:43;;;;;;;6.05;1.90;;;;;;;9.08;100.00;100080.84;4896540;29;20275;-79
2023/04/25 06:32:10;;;;;;;9.68;3.10;;;;;;;9.19;100.00;100096.81;4894126;29;20273;-79
2023/04/25 06:34:38;;;;;;;10.50;2.63;;;;;;;9.19;100.00;100102.97;4887996;29;20271;-79
2023/04/25 06:37:05;;;;;;;5.82;1.90;;;;;;;9.23;100.00;100102.13;4895776;29;20267;-79
2023/04/25 06:39:32;;;;;;;6.03;1.83;;;;;;;9.18;100.00;100092.41;4879132;29;20243;-79
2023/04/25 06:42:00;;;;;;;7.10;2.53;;;;;;;9.32;100.00;100103.97;4894857;29;20232;-79
2023/04/25 06:44:29;;;;;;;7.95;2.63;;;;;;;9.28;100.00;100104.81;4895376;29;20255;-79
2023/04/25 06:46:56;;;;;;;5.43;1.80;;;;;;;9.27;100.00;100122.41;4895710;29;20654;-79
2023/04/25 06:49:24;;;;;;;4.57;1.63;;;;;;;9.35;100.00;100126.88;4895700;29;20243;-79
2023/04/25 06:51:51;;;;;;;8.80;2.60;;;;;;;9.25;100.00;100113.59;4896277;29;20303;-79
2023/04/25 06:54:19;;;;;;;5.22;2.00;;;;;;;9.16;100.00;100104.69;4895164;29;20282;-79
2023/04/25 06:56:46;;;;;;;5.32;1.80;;;;;;;9.18;100.00;100098.56;4896227;29;20243;-79
2023/04/25 06:59:14;;;;;;;3.65;1.60;;;;;;;9.12;100.00;100106.44;4894582;29;20330;-79
2023/04/25 07:01:41;;;;;;;5.40;2.38;;;;;;;9.04;100.00;100108.06;4892441;29;20264;-79
2023/04/25 07:04:09;;;;;;;5.22;2.03;;;;;;;9.06;100.00;100110.72;4894480;29;20267;-79
2023/04/25 07:06:42;;;;;;;3.95;1.60;;;;;;;9.04;100.00;100110.72;4892919;29;20314;-79
2023/04/25 07:09:10;;;;;;;10.40;2.60;;;;;;;8.90;100.00;100112.31;4894862;29;20255;-79
2023/04/25 07:11:37;;;;;;;5.43;2.13;;;;;;;8.72;100.00;100114.75;4892731;29;20296;-79
2023/04/25 07:14:05;;;;;;;3.75;1.48;;;;;;;8.66;100.00;100100.66;4894845;29;20291;-79
2023/04/25 07:16:32;;;;;;;5.90;2.50;;;;;;;8.68;100.00;100089.22;4893589;29;20240;-79
2023/04/25 07:19:00;;;;;;;4.78;2.15;;;;;;;8.70;100.00;100080.47;4893488;29;20231;-79
2023/04/25 07:21:27;;;;;;;4.47;1.80;;;;;;;8.65;100.00;100067.25;4895400;29;20271;-79
2023/04/25 07:23:55;;;;;;;3.95;1.75;;;;;;;8.54;100.00;100050.44;4889620;29;20267;-79
2023/04/25 07:26:23;;;;;;;4.45;1.95;;;;;;;8.73;100.00;100069.06;4891699;29;20251;-79
2023/04/25 07:28:51;;;;;;;3.17;1.80;;;;;;;8.82;100.00;100088.50;4893249;29;20243;-79
2023/04/25 07:31:19;;;;;;;4.90;2.15;;;;;;;8.72;100.00;100093.66;4893897;29;20267;-79
2023/04/25 07:33:46;;;;;;;1.83;1.17;;;;;;;8.92;100.00;100121.13;4891905;29;20306;-79
2023/04/25 07:36:15;;;;;;;2.65;1.50;;;;;;;8.75;100.00;100125.34;4891614;29;20327;-80
2023/04/25 07:38:42;;;;;;;2.67;1.60;;;;;;;8.61;100.00;100118.16;4887826;29;20255;-79
2023/04/25 07:41:10;;;;;;;3.08;1.60;;;;;;;8.74;100.00;100140.28;4893111;29;20643;-79
2023/04/25 07:43:37;;;;;;;3.65;1.70;;;;;;;8.61;100.00;100128.69;4893041;29;20251;-78
2023/04/25 07:46:05;;;;;;;4.07;1.90;;;;;;;8.58;100.00;100123.38;4894374;29;20243;-79
2023/04/25 07:48:32;;;;;;;3.67;1.85;;;8.40;99.90;;;8.79;100.00;100127.13;4893102;29;20252;-78
2023/04/25 07:50:59;;;;;;;2.30;1.27;;;;;;;8.70;100.00;100140.22;4895359;29;20279;-79
2023/04/25 07:53:27;;;;;;;4.28;2.22;;;;;;;8.49;100.00;100125.91;4891855;29;20240;-78
2023/04/25 07:55:54;;;;;;;3.20;1.70;;;;;;;8.55;100.00;100136.53;4892890;29;20247;-79
2023/04/25 07:58:22;;;;;;;3.30;1.85;;;;;;;8.28;100.00;100122.97;4893186;29;20361;-79
2023/04/25 08:00:49;;;;;;;3.00;1.50;;;;;;;8.34;100.00;100128.34;4894150;29;20244;-79
2023/04/25 08:03:17;;;;;;;4.00;2.75;;;;;;;8.49;100.00;100146.13;4892964;29;20264;-79
2023/04/25 08:05:45;;;;;;;2.55;1.50;;;;;;;8.56;100.00;100153.22;4894706;29;20243;-79
2023/04/25 08:08:13;;;;;;;3.20;1.73;;;;;;;8.62;100.00;100161.22;4889754;29;20327;-79
2023/04/25 08:10:40;;;;;;;2.78;1.70;;;;;;;8.54;100.00;100165.50;4891097;29;20303;-79
2023/04/25 08:13:08;;;;;;;2.03;1.40;;;;;;;8.48;100.00;100175.97;4888925;29;20330;-79
2023/04/25 08:15:35;;;;;;;2.70;1.45;;;;;;;8.39;100.00;100160.91;4892393;29;20255;-79
2023/04/25 08:18:03;;;;;;;2.85;1.60;;;;;;;8.66;100.00;100178.84;4893268;29;20279;-79
2023/04/25 08:20:30;;;;;;;3.78;1.80;;;;;;;8.75;100.00;100207.94;4898457;29;20251;-79
2023/04/25 08:22:58;;;;;;;3.55;1.63;;;;;;;8.65;100.00;100188.50;4912099;29;20774;-79
2023/04/25 08:25:25;;;;;;;3.13;1.73;;;;;;;8.82;100.00;100209.78;4897977;29;20291;-79
2023/04/25 08:27:53;;;;;;;4.50;1.90;;;;;;;8.91;100.00;100201.13;4897623;29;20235;-80
2023/04/25 08:30:20;;;;;;;3.30;1.48;;;;;;;8.72;100.00;100189.47;4896999;29;20223;-79
2023/04/25 08:32:48;;;;;;;4.72;1.90;;;;;;;8.80;100.00;100200.97;4891517;29;20296;-79
2023/04/25 08:35:17;;;;;;;5.50;2.10;;;;;;;8.65;100.00;100182.34;4898296;29;20240;-78
2023/04/25 08:37:44;;;;;;;2.88;1.52;;;;;;;8.70;100.00;100166.59;4897996;29;20248;-79
2023/04/25 08:40:15;;;;;;;3.20;1.50;;;8.30;99.90;;;8.69;100.00;100151.63;4899173;29;20255;-79
2023/04/25 08:42:42;;;;;;;2.67;1.52;;;8.60;99.90;;;8.82;100.00;100140.34;4897861;29;20267;-79
2023/04/25 08:45:10;;;;;;;2.28;1.33;;;;;;;9.05;100.00;100154.69;4897245;29;20239;-79
2023/04/25 08:47:39;;;;;;;2.30;1.40;;;9.00;99.90;;;9.29;100.00;100168.16;4891392;29;20247;-79
2023/04/25 08:50:07;;;;;;;2.38;1.30;;;;;;;9.35;100.00;100148.84;4897791;29;20254;-79
2023/04/25 08:52:45;;;;;;;2.58;1.45;;;9.30;99.90;;;9.70;100.00;100153.56;4893263;29;20240;-79
2023/04/25 08:55:14;;;;;;;2.28;1.30;;;9.40;99.90;;;9.62;100.00;100135.91;4898208;29;20232;-79
2023/04/25 08:57:45;;;;;;;4.22;1.92;;;9.40;99.90;;;9.47;100.00;100108.50;4895358;29;20239;-79
2023/04/25 09:00:13;;;;;;;3.92;1.80;;;9.40;99.90;;;9.68;100.00;100120.97;4890098;29;20242;-79
2023/04/25 09:02:43;;;;;;;3.10;1.50;;;9.30;99.90;;;9.43;100.00;100083.81;4895326;29;20263;-78
2023/04/25 09:05:13;;;;;;;3.55;1.83;;;9.30;99.90;;;9.57;100.00;100076.00;4900663;29;20235;-78
2023/04/25 09:07:41;;;;;;;3.70;1.80;;;;;;;10.00;100.00;100081.56;4901528;29;20243;-79
2023/04/25 09:10:09;;;;;;;3.78;1.88;;;;;;;9.73;100.00;100027.72;4900128;29;20251;-78
2023/04/25 09:12:37;;;;;;;3.63;1.80;;;9.70;99.90;;;10.10;100.00;100035.84;4899341;29;20307;-79
2023/04/25 09:15:11;;;;;;;4.63;2.17;;;10.30;99.90;;;10.92;100.00;100096.97;4899871;29;20239;-80
2023/04/25 09:17:41;;;;;;;3.85;1.67;;;;;;;10.67;100.00;100042.25;4898529;29;21415;-80
2023/04/25 09:20:12;;;;;;;3.75;1.63;;;10.50;99.90;;;10.80;100.00;100013.19;4900496;29;20708;-80
2023/04/25 09:22:39;;;;;;;4.97;1.92;;;;;;;10.52;100.00;99977.00;4900313;29;20719;-80
2023/04/25 09:25:14;;;;;;;3.72;1.77;;;10.30;99.90;;;10.56;100.00;99965.56;4900980;29;20271;-81
2023/04/25 09:27:52;;;;;;;5.57;2.33;;;10.20;99.90;;;10.18;100.00;99925.78;4900141;29;20616;-80
2023/04/25 09:30:30;;;;;;;5.53;2.25;;;10.40;99.90;;;10.71;100.00;99973.50;4900023;29;20242;-80
2023/04/25 09:33:06;;;;;;;3.90;2.00;;;10.40;99.90;;;10.62;100.00;99954.09;4899864;29;20247;-80
2023/04/25 09:35:55;;;;;;;3.38;1.70;;;10.50;99.90;;;10.68;100.00;99935.59;4902681;29;20258;-80
2023/04/25 09:38:22;;;;;;;3.03;1.52;;;;;;;10.39;100.00;99878.28;4912009;29;20238;-80
2023/04/25 09:40:52;;;;;;;3.70;1.80;;;10.40;99.90;;;10.60;100.00;99858.91;4902118;29;20248;-80
2023/04/25 09:43:24;;;;;;;4.97;2.30;;;10.40;99.90;;;10.50;100.00;99817.50;4899161;29;20231;-81
2023/04/25 09:45:53;;;;;;;4.20;1.90;;;;;;;10.55;100.00;99776.97;4898689;29;20307;-79
2023/04/25 09:48:24;;;;;;;3.08;1.58;;;;;;;10.51;100.00;99740.84;4893188;29;20331;-80
2023/04/25 09:51:10;;;;;;;4.35;2.53;;;10.50;99.90;;;10.67;100.00;99720.53;4899803;29;20243;-80
2023/04/25 09:53:40;;;;;;;4.13;1.80;;;10.50;99.90;;;10.65;100.00;99698.50;4898712;29;20243;-79
2023/04/25 09:56:10;;;;;;;3.03;1.58;;;10.30;99.90;;;10.47;100.00;99675.66;4901081;29;20724;-79
2023/04/25 09:58:39;;;;;;;5.00;2.22;;;10.40;99.90;;;10.71;100.00;99676.44;4902689;29;20244;-79
2023/04/25 10:01:09;;;;;;;4.60;1.73;;;10.60;99.90;;;10.81;100.00;99715.19;4903479;29;20242;-79
2023/04/25 10:03:42;;;;;;;4.47;1.77;;;10.60;99.90;;;10.96;100.00;99720.44;4899066;29;20247;-80
2023/04/25 10:06:16;;;;;;;3.67;1.83;;;10.50;99.90;;;10.52;100.00;99671.22;4903715;29;20299;-79
2023/04/25 10:08:44;;;;;;;2.33;1.17;;;;;;;10.87;100.00;99763.66;4900148;29;20311;-79
2023/04/25 10:11:14;;;;;;;2.92;1.48;;;;;;;10.72;100.00;99783.97;4900906;29;20262;-79
2023/04/25 10:13:42;;;;;;;3.15;1.90;;;10.20;99.90;;;10.26;100.00;99692.41;4895464;29;20240;-79
2023/04/25 10:16:10;;;;;;;2.63;1.35;;;;;;;10.35;100.00;99694.13;4900665;29;20302;-79
2023/04/25 10:18:37;;;;;;;3.33;1.75;;;;;;;10.55;100.00;99723.22;4900197;29;20300;-80
2023/04/25 10:21:05;;;;;;;2.05;1.25;;;;;;;10.65;100.00;99738.16;4903083;29;20299;-82
2023/04/25 10:23:36;;;;;;;3.83;2.15;;;;;;;10.42;100.00;99708.25;4896211;29;20251;-80
2023/04/25 10:26:04;;;;;;;3.92;1.95;;;;;;;10.47;100.00;99728.50;4897179;29;20705;-81
2023/04/25 10:28:59;;;;;;;3.10;1.65;;;10.40;99.90;;;10.65;100.00;99764.59;4895425;29;20231;-82
2023/04/25 10:31:26;;;;;;;2.85;1.50;;;;;;;10.52;100.00;99797.22;4899584;29;20247;-80
2023/04/25 10:33:54;;;;;;;3.33;1.77;;;;;;;10.43;100.00;99806.06;4897417;29;20816;-81
2023/04/25 10:36:24;;;;;;;3.25;1.75;;;10.20;99.90;;;10.40;100.00;99824.56;4896127;29;20262;-81
2023/04/25 10:38:52;;;;;;;3.33;1.73;;;;;;;10.47;100.00;99828.97;4896442;29;20243;-81
2023/04/25 10:41:21;;;;;;;2.80;1.70;;;10.30;99.90;;;10.64;100.00;99839.53;4897706;29;20299;-81
2023/04/25 10:43:50;;;;;;;3.35;1.80;;;;;;;10.77;100.00;99825.41;4899430;29;20330;-81
2023/04/25 10:46:34;;;;;;;3.83;1.88;;;10.30;99.90;;;10.64;100.00;99804.28;4899393;29;20243;-81
2023/04/25 10:49:03;;;;;;;2.78;1.60;;;10.40;99.90;;;10.51;100.00;99769.91;4897703;29;20533;-81
2023/04/25 10:51:36;;;;;;;4.40;2.22;;;10.50;99.90;;;10.88;100.00;99798.94;4898323;29;20290;-79
2023/04/25 10:54:25;;;;;;;2.60;1.38;;;10.70;99.90;;;11.04;100.00;99791.84;4900095;29;20696;-81
2023/04/25 10:56:53;;;;;;;6.47;2.60;;;;;;;10.92;100.00;99773.34;4910569;29;20236;-81
2023/04/25 10:59:21;;;;;;;4.90;2.97;;;;;;;11.28;100.00;99802.34;4896493;29;20244;-81
2023/04/25 11:01:52;;;;;;;5.80;2.70;;;11.10;99.90;;;11.50;100.00;99769.56;4895605;29;20297;-81
2023/04/25 11:04:36;;;;;;;3.08;1.45;;;11.80;99.90;;;12.35;100.00;99799.97;4894896;29;20254;-79
2023/04/25 11:07:11;;;;;;;4.10;1.95;;;;;;;11.72;100.00;99682.09;4912443;29;20248;-78
2023/04/25 11:09:40;;;;;;;4.13;2.28;;;11.30;99.90;;;11.58;100.00;99644.19;4878921;29;20251;-78
2023/04/25 11:12:11;;;;;;;4.47;2.15;;;11.50;99.90;;;11.70;100.00;99666.19;4895017;29;20250;-80
2023/04/25 11:14:39;;;;;;;3.78;2.05;;;;;;;11.44;100.00;99613.41;4886641;29;20234;-80